• Join FlightAware (Why Join?)
  • Login
  • US Flag 
12:19PM EDT


 

Airport Tracker/Info


-or-


 

Live Flight TrackerFlight Track Log ✈ UCA3598 ✈ 20-Sep-2013 ✈ KIAD - KBGM

Flight Track Log - Related Links

Times and Time Zones

All times are in EDT time to prevent confusion due to time zone crossing. See the UCA3598 flight status page for this flight to view local times or setup timezone preferences in your user account.

Time Position Orientation Groundspeed Altitude Reporting Facility
EDT Latitude Longitude Course Direction KTS MPH feet Rate Location/Type
12:31AM 39.0081 -77.5417 North 208 239 3,500  Level Washington Center
12:32AM 39.0708 -77.5300 North 208 239 4,400 960 Climbing Washington Center
12:33AM 39.2836 -77.3142 North  Level Estimated
12:33AM 39.1378 -77.5211 North 225 259 5,400  Level Washington Center
12:34AM 39.3508 -77.2849 North  Level Estimated
12:34AM 39.2044 -77.5119 North 230 265 6,400  Level Washington Center
12:35AM 39.4179 -77.2555 North  Level Estimated
12:35AM 39.2650 -77.5056 North 235 270 7,900  Level Washington Center
12:36AM 39.3236 -77.4964 North 225 259 9,200 1,140 Climbing Washington Center
12:37AM 39.3842 -77.4900 North 220 253 10,200 1,020 Climbing Washington Center
12:38AM 39.4467 -77.4808 North 220 253 11,300 240 Climbing Washington Center
12:40AM 39.5743 -77.4500 North  Level FlightAware Approximate
12:47AM 40.0283 -77.4333 North  Level FlightAware Approximate
12:48AM 40.0933 -77.4333 360° North  Level FlightAware Approximate
12:49AM 40.1583 -77.4333 North  Level FlightAware Approximate
12:50AM 40.2233 -77.4333 360° North  Level FlightAware Approximate
12:51AM 40.2883 -77.4333 360° North  Level FlightAware Approximate
12:52AM 40.3533 -77.4333 360° North  Level FlightAware Approximate
12:53AM 40.4183 -77.4333 360° North  Level FlightAware Approximate
12:54AM 40.4833 -77.4333 360° North  Level FlightAware Approximate
12:59AM 40.9119 -76.8036 360° North 286 329 16,100  Level New York Center
01:00AM 40.9911 -76.7614 22° Northeast 291 335 15,800 -360 Descending New York Center
01:01AM 41.0703 -76.7214 21° North 296 341 15,400 -480 Descending New York Center
01:02AM 41.1494 -76.6789 22° Northeast 296 341 14,900 -480 Descending New York Center
01:03AM 41.2350 -76.6311 23° Northeast 303 349 14,500 -420 Descending New York Center
01:04AM 41.3058 -76.5931 22° Northeast 298 343 14,100 -420 Descending New York Center
01:05AM 41.3847 -76.5528 21° North 298 343 13,700 -420 Descending New York Center
01:06AM 41.4744 -76.5081 20° North 303 349 13,300 -360 Descending New York Center
01:07AM 41.5514 -76.4647 23° Northeast 303 349 13,000 -420 Descending New York Center
01:08AM 41.6264 -76.4239 22° Northeast 298 343 12,500 -720 Descending New York Center
01:09AM 41.7011 -76.3831 22° Northeast 304 350 11,600 -960 Descending New York Center
01:10AM 41.7803 -76.3422 21° North 304 350 10,600 -1,140 Descending New York Center
01:11AM 41.8617 -76.2906 25° Northeast 294 338 9,400 -1,380 Descending New York Center
01:12AM 41.9367 -76.2467 24° Northeast 284 327 7,900 -1,500 Descending New York Center
01:13AM 42.0075 -76.2022 25° Northeast 284 327 6,500 -1,500 Descending New York Center
01:14AM 42.0822 -76.1581 24° Northeast 284 327 5,000 -1,320 Descending New York Center
01:15AM 42.1508 -76.1133 26° Northeast 284 327 3,900 -960 Descending New York Center
01:16AM 42.2064 -76.0844 21° North 246 283 3,100 -540 Descending New York Center
01:17AM 42.2456 -76.0456 36° Northeast 201 231 2,900 -360 Descending New York Center
01:18AM 42.2431 -76.0061 95° East 131 151 2,400 -540 Descending New York Center